Terminal Aerodrome Forecast
Issued by NWS Portland, ME

Home | Current Version | Previous Version | Text Only | Print | Product List | Glossary On
Versions: 1 2 3 4 5 6 7 8 9 10 11 12 13 14 15 16 17 18
000
FTUS41 KGYX 300859 AAA
TAFCON
TAF AMD
KCON 300859Z 3009/3106 VRB03KT P6SM SCT250
     FM301000 00000KT 5SM BR FEW250
     FM301200 21005KT P6SM SCT050 BKN100
     FM302000 20008KT 4SM -TSRA BKN050CB OVC100
     FM310000 23003KT 3SM BR OVC040=

USA.gov is the U.S. government's official web portal to all federal, state and local government web resources and services.